sensor_id;sensor_type;location;lat;lon;timestamp;P1;durP1;ratioP1;P2;durP2;ratioP2
70715;SDS011;59053;50.832;12.882;2023-05-20T00:01:28;16.17;;;8.40;;
70715;SDS011;59053;50.832;12.882;2023-05-20T00:03:53;15.33;;;7.93;;
70715;SDS011;59053;50.832;12.882;2023-05-20T00:06:19;18.53;;;8.77;;
70715;SDS011;59053;50.832;12.882;2023-05-20T00:08:44;15.85;;;8.18;;
70715;SDS011;59053;50.832;12.882;2023-05-20T00:11:09;17.87;;;7.80;;
70715;SDS011;59053;50.832;12.882;2023-05-20T00:13:35;17.10;;;7.18;;
70715;SDS011;59053;50.832;12.882;2023-05-20T00:16:00;17.20;;;8.27;;
70715;SDS011;59053;50.832;12.882;2023-05-20T00:18:26;15.53;;;8.00;;
70715;SDS011;59053;50.832;12.882;2023-05-20T00:20:51;15.77;;;8.10;;
70715;SDS011;59053;50.832;12.882;2023-05-20T00:23:18;17.67;;;8.35;;
70715;SDS011;59053;50.832;12.882;2023-05-20T00:25:43;16.53;;;7.97;;
70715;SDS011;59053;50.832;12.882;2023-05-20T00:28:09;16.52;;;8.32;;
70715;SDS011;59053;50.832;12.882;2023-05-20T00:30:34;15.13;;;8.30;;
70715;SDS011;59053;50.832;12.882;2023-05-20T00:32:59;15.30;;;5.60;;
70715;SDS011;59053;50.832;12.882;2023-05-20T00:35:25;15.97;;;8.33;;
70715;SDS011;59053;50.832;12.882;2023-05-20T00:37:50;16.73;;;8.37;;
70715;SDS011;59053;50.832;12.882;2023-05-20T00:40:16;14.93;;;7.38;;
70715;SDS011;59053;50.832;12.882;2023-05-20T00:42:41;18.03;;;8.80;;
70715;SDS011;59053;50.832;12.882;2023-05-20T00:45:07;20.33;;;8.23;;
70715;SDS011;59053;50.832;12.882;2023-05-20T00:47:33;17.70;;;8.82;;
70715;SDS011;59053;50.832;12.882;2023-05-20T00:50:00;18.60;;;8.95;;
70715;SDS011;59053;50.832;12.882;2023-05-20T00:52:28;17.88;;;8.57;;
70715;SDS011;59053;50.832;12.882;2023-05-20T00:54:55;17.23;;;8.57;;
70715;SDS011;59053;50.832;12.882;2023-05-20T00:57:21;18.85;;;9.05;;
70715;SDS011;59053;50.832;12.882;2023-05-20T00:59:47;17.87;;;9.57;;
70715;SDS011;59053;50.832;12.882;2023-05-20T01:02:12;16.77;;;8.80;;
70715;SDS011;59053;50.832;12.882;2023-05-20T01:04:38;17.47;;;9.07;;
70715;SDS011;59053;50.832;12.882;2023-05-20T01:07:04;17.63;;;8.17;;
70715;SDS011;59053;50.832;12.882;2023-05-20T01:09:30;17.38;;;8.40;;
70715;SDS011;59053;50.832;12.882;2023-05-20T01:14:48;19.30;;;9.38;;
70715;SDS011;59053;50.832;12.882;2023-05-20T01:17:25;17.43;;;8.80;;
70715;SDS011;59053;50.832;12.882;2023-05-20T01:19:51;18.38;;;9.05;;
70715;SDS011;59053;50.832;12.882;2023-05-20T01:22:26;17.70;;;8.95;;
70715;SDS011;59053;50.832;12.882;2023-05-20T01:24:52;21.10;;;9.32;;
70715;SDS011;59053;50.832;12.882;2023-05-20T01:27:17;18.70;;;9.57;;
70715;SDS011;59053;50.832;12.882;2023-05-20T01:29:44;20.58;;;9.45;;
70715;SDS011;59053;50.832;12.882;2023-05-20T01:32:11;20.57;;;9.30;;
70715;SDS011;59053;50.832;12.882;2023-05-20T01:34:40;18.70;;;8.68;;
70715;SDS011;59053;50.832;12.882;2023-05-20T01:37:05;20.67;;;10.23;;
70715;SDS011;59053;50.832;12.882;2023-05-20T01:39:32;21.27;;;10.23;;
70715;SDS011;59053;50.832;12.882;2023-05-20T01:41:58;22.77;;;10.40;;
70715;SDS011;59053;50.832;12.882;2023-05-20T01:44:24;22.17;;;10.80;;
70715;SDS011;59053;50.832;12.882;2023-05-20T01:46:50;20.33;;;10.00;;
70715;SDS011;59053;50.832;12.882;2023-05-20T01:49:15;21.30;;;9.07;;
70715;SDS011;59053;50.832;12.882;2023-05-20T01:51:41;22.42;;;8.48;;
70715;SDS011;59053;50.832;12.882;2023-05-20T01:54:08;22.00;;;10.10;;
70715;SDS011;59053;50.832;12.882;2023-05-20T01:56:33;20.80;;;10.77;;
70715;SDS011;59053;50.832;12.882;2023-05-20T01:58:59;23.63;;;11.10;;
70715;SDS011;59053;50.832;12.882;2023-05-20T02:01:24;22.97;;;10.77;;
70715;SDS011;59053;50.832;12.882;2023-05-20T02:03:50;22.23;;;10.55;;
70715;SDS011;59053;50.832;12.882;2023-05-20T02:06:15;24.23;;;11.10;;
70715;SDS011;59053;50.832;12.882;2023-05-20T02:08:40;22.50;;;9.90;;
70715;SDS011;59053;50.832;12.882;2023-05-20T02:11:06;22.20;;;11.27;;
70715;SDS011;59053;50.832;12.882;2023-05-20T02:13:31;28.50;;;11.20;;
70715;SDS011;59053;50.832;12.882;2023-05-20T02:15:57;21.23;;;10.93;;
70715;SDS011;59053;50.832;12.882;2023-05-20T02:18:22;24.03;;;11.50;;
70715;SDS011;59053;50.832;12.882;2023-05-20T02:20:50;23.08;;;9.55;;
70715;SDS011;59053;50.832;12.882;2023-05-20T02:23:16;23.10;;;10.55;;
70715;SDS011;59053;50.832;12.882;2023-05-20T02:25:42;25.20;;;10.80;;
70715;SDS011;59053;50.832;12.882;2023-05-20T02:28:08;27.40;;;11.95;;
70715;SDS011;59053;50.832;12.882;2023-05-20T02:30:37;25.93;;;12.07;;
70715;SDS011;59053;50.832;12.882;2023-05-20T02:33:03;31.15;;;12.40;;
70715;SDS011;59053;50.832;12.882;2023-05-20T02:35:28;23.17;;;11.47;;
70715;SDS011;59053;50.832;12.882;2023-05-20T02:37:54;30.20;;;12.60;;
70715;SDS011;59053;50.832;12.882;2023-05-20T02:40:19;27.27;;;11.87;;
70715;SDS011;59053;50.832;12.882;2023-05-20T02:42:45;25.97;;;11.73;;
70715;SDS011;59053;50.832;12.882;2023-05-20T02:45:11;29.77;;;12.23;;
70715;SDS011;59053;50.832;12.882;2023-05-20T02:47:37;24.97;;;11.83;;
70715;SDS011;59053;50.832;12.882;2023-05-20T02:50:04;28.45;;;12.25;;
70715;SDS011;59053;50.832;12.882;2023-05-20T02:52:29;24.95;;;12.48;;
70715;SDS011;59053;50.832;12.882;2023-05-20T02:54:55;27.27;;;13.07;;
70715;SDS011;59053;50.832;12.882;2023-05-20T02:57:21;25.10;;;12.02;;
70715;SDS011;59053;50.832;12.882;2023-05-20T02:59:47;26.40;;;12.73;;
70715;SDS011;59053;50.832;12.882;2023-05-20T03:02:13;26.87;;;12.17;;
70715;SDS011;59053;50.832;12.882;2023-05-20T03:04:38;27.03;;;12.53;;
70715;SDS011;59053;50.832;12.882;2023-05-20T03:07:05;26.83;;;12.30;;
70715;SDS011;59053;50.832;12.882;2023-05-20T03:09:31;27.42;;;11.80;;
70715;SDS011;59053;50.832;12.882;2023-05-20T03:11:58;26.35;;;11.63;;
70715;SDS011;59053;50.832;12.882;2023-05-20T03:14:23;30.10;;;12.37;;
70715;SDS011;59053;50.832;12.882;2023-05-20T03:16:48;28.20;;;13.13;;
70715;SDS011;59053;50.832;12.882;2023-05-20T03:19:14;25.60;;;12.60;;
70715;SDS011;59053;50.832;12.882;2023-05-20T03:21:40;26.77;;;12.45;;
70715;SDS011;59053;50.832;12.882;2023-05-20T03:24:06;27.92;;;12.30;;
70715;SDS011;59053;50.832;12.882;2023-05-20T03:26:32;26.43;;;12.63;;
70715;SDS011;59053;50.832;12.882;2023-05-20T03:29:02;27.52;;;11.50;;
70715;SDS011;59053;50.832;12.882;2023-05-20T03:31:28;25.93;;;11.90;;
70715;SDS011;59053;50.832;12.882;2023-05-20T03:33:53;27.77;;;12.47;;
70715;SDS011;59053;50.832;12.882;2023-05-20T03:36:19;27.07;;;11.80;;
70715;SDS011;59053;50.832;12.882;2023-05-20T03:38:45;28.58;;;12.55;;
70715;SDS011;59053;50.832;12.882;2023-05-20T03:41:10;28.10;;;12.70;;
70715;SDS011;59053;50.832;12.882;2023-05-20T03:43:36;27.70;;;12.20;;
70715;SDS011;59053;50.832;12.882;2023-05-20T03:46:01;29.70;;;13.20;;
70715;SDS011;59053;50.832;12.882;2023-05-20T03:48:27;27.37;;;13.37;;
70715;SDS011;59053;50.832;12.882;2023-05-20T03:50:52;28.23;;;12.90;;
70715;SDS011;59053;50.832;12.882;2023-05-20T03:53:18;28.63;;;13.25;;
70715;SDS011;59053;50.832;12.882;2023-05-20T03:55:44;28.75;;;13.27;;
70715;SDS011;59053;50.832;12.882;2023-05-20T03:58:13;27.00;;;12.55;;
70715;SDS011;59053;50.832;12.882;2023-05-20T04:00:39;27.90;;;12.63;;
70715;SDS011;59053;50.832;12.882;2023-05-20T04:03:05;30.87;;;13.13;;
70715;SDS011;59053;50.832;12.882;2023-05-20T04:05:30;27.93;;;12.60;;
70715;SDS011;59053;50.832;12.882;2023-05-20T04:07:56;23.65;;;9.63;;
70715;SDS011;59053;50.832;12.882;2023-05-20T04:10:23;21.48;;;8.63;;
70715;SDS011;59053;50.832;12.882;2023-05-20T04:12:49;26.70;;;12.85;;
70715;SDS011;59053;50.832;12.882;2023-05-20T04:15:15;30.10;;;12.93;;
70715;SDS011;59053;50.832;12.882;2023-05-20T04:17:48;28.73;;;12.35;;
70715;SDS011;59053;50.832;12.882;2023-05-20T04:20:14;33.05;;;13.10;;
70715;SDS011;59053;50.832;12.882;2023-05-20T04:22:39;29.97;;;12.67;;
70715;SDS011;59053;50.832;12.882;2023-05-20T04:25:05;27.53;;;12.57;;
70715;SDS011;59053;50.832;12.882;2023-05-20T04:27:31;29.50;;;13.45;;
70715;SDS011;59053;50.832;12.882;2023-05-20T04:30:02;28.52;;;13.48;;
70715;SDS011;59053;50.832;12.882;2023-05-20T04:32:31;32.08;;;14.10;;
70715;SDS011;59053;50.832;12.882;2023-05-20T04:34:58;30.93;;;13.90;;
70715;SDS011;59053;50.832;12.882;2023-05-20T04:37:26;29.08;;;13.80;;
70715;SDS011;59053;50.832;12.882;2023-05-20T04:39:51;28.83;;;13.15;;
70715;SDS011;59053;50.832;12.882;2023-05-20T04:42:17;32.97;;;13.83;;
70715;SDS011;59053;50.832;12.882;2023-05-20T04:44:43;30.85;;;14.77;;
70715;SDS011;59053;50.832;12.882;2023-05-20T04:47:12;31.15;;;12.98;;
70715;SDS011;59053;50.832;12.882;2023-05-20T04:49:38;29.95;;;12.73;;
70715;SDS011;59053;50.832;12.882;2023-05-20T04:52:05;29.77;;;13.87;;
70715;SDS011;59053;50.832;12.882;2023-05-20T04:54:31;32.87;;;13.93;;
70715;SDS011;59053;50.832;12.882;2023-05-20T04:56:57;31.95;;;14.25;;
70715;SDS011;59053;50.832;12.882;2023-05-20T04:59:22;30.75;;;14.25;;
70715;SDS011;59053;50.832;12.882;2023-05-20T05:01:49;32.10;;;12.98;;
70715;SDS011;59053;50.832;12.882;2023-05-20T05:04:15;30.80;;;14.00;;
70715;SDS011;59053;50.832;12.882;2023-05-20T05:06:40;36.10;;;14.52;;
70715;SDS011;59053;50.832;12.882;2023-05-20T05:09:05;30.43;;;13.50;;
70715;SDS011;59053;50.832;12.882;2023-05-20T05:11:32;32.58;;;14.95;;
70715;SDS011;59053;50.832;12.882;2023-05-20T05:13:58;32.33;;;13.90;;
70715;SDS011;59053;50.832;12.882;2023-05-20T05:16:25;32.72;;;14.55;;
70715;SDS011;59053;50.832;12.882;2023-05-20T05:18:51;28.07;;;13.07;;
70715;SDS011;59053;50.832;12.882;2023-05-20T05:21:16;35.33;;;13.87;;
70715;SDS011;59053;50.832;12.882;2023-05-20T05:23:42;24.63;;;10.63;;
70715;SDS011;59053;50.832;12.882;2023-05-20T05:26:07;29.73;;;13.37;;
70715;SDS011;59053;50.832;12.882;2023-05-20T05:28:33;30.90;;;12.93;;
70715;SDS011;59053;50.832;12.882;2023-05-20T05:30:59;30.55;;;13.50;;
70715;SDS011;59053;50.832;12.882;2023-05-20T05:33:26;20.67;;;10.33;;
70715;SDS011;59053;50.832;12.882;2023-05-20T05:35:51;29.63;;;12.13;;
70715;SDS011;59053;50.832;12.882;2023-05-20T05:38:17;32.70;;;13.90;;
70715;SDS011;59053;50.832;12.882;2023-05-20T05:40:42;31.40;;;13.90;;
70715;SDS011;59053;50.832;12.882;2023-05-20T05:43:08;29.40;;;12.90;;
70715;SDS011;59053;50.832;12.882;2023-05-20T05:45:34;31.48;;;13.68;;
70715;SDS011;59053;50.832;12.882;2023-05-20T05:47:59;30.47;;;13.40;;
70715;SDS011;59053;50.832;12.882;2023-05-20T05:50:24;26.52;;;11.07;;
70715;SDS011;59053;50.832;12.882;2023-05-20T05:52:50;29.53;;;12.43;;
70715;SDS011;59053;50.832;12.882;2023-05-20T05:55:16;33.45;;;13.45;;
70715;SDS011;59053;50.832;12.882;2023-05-20T05:57:42;31.10;;;12.77;;
70715;SDS011;59053;50.832;12.882;2023-05-20T06:00:08;32.30;;;13.68;;
70715;SDS011;59053;50.832;12.882;2023-05-20T06:02:43;27.92;;;12.25;;
70715;SDS011;59053;50.832;12.882;2023-05-20T06:05:10;31.98;;;14.23;;
70715;SDS011;59053;50.832;12.882;2023-05-20T06:07:35;28.47;;;13.60;;
70715;SDS011;59053;50.832;12.882;2023-05-20T06:10:01;28.23;;;12.57;;
70715;SDS011;59053;50.832;12.882;2023-05-20T06:12:27;30.40;;;12.18;;
70715;SDS011;59053;50.832;12.882;2023-05-20T06:14:52;32.03;;;14.10;;
70715;SDS011;59053;50.832;12.882;2023-05-20T06:17:18;31.80;;;13.87;;
70715;SDS011;59053;50.832;12.882;2023-05-20T06:19:44;29.50;;;12.97;;
70715;SDS011;59053;50.832;12.882;2023-05-20T06:22:09;25.40;;;11.45;;
70715;SDS011;59053;50.832;12.882;2023-05-20T06:24:34;28.10;;;12.43;;
70715;SDS011;59053;50.832;12.882;2023-05-20T06:27:00;30.08;;;13.63;;
70715;SDS011;59053;50.832;12.882;2023-05-20T06:29:27;31.67;;;14.35;;
70715;SDS011;59053;50.832;12.882;2023-05-20T06:31:53;26.33;;;11.43;;
70715;SDS011;59053;50.832;12.882;2023-05-20T06:34:19;32.08;;;13.40;;
70715;SDS011;59053;50.832;12.882;2023-05-20T06:36:44;28.13;;;13.23;;
70715;SDS011;59053;50.832;12.882;2023-05-20T06:39:10;28.47;;;12.17;;
70715;SDS011;59053;50.832;12.882;2023-05-20T06:41:39;30.38;;;13.13;;
70715;SDS011;59053;50.832;12.882;2023-05-20T06:44:08;27.02;;;12.43;;
70715;SDS011;59053;50.832;12.882;2023-05-20T06:46:49;28.08;;;15.38;;
70715;SDS011;59053;50.832;12.882;2023-05-20T06:49:15;17.10;;;8.77;;
70715;SDS011;59053;50.832;12.882;2023-05-20T06:51:40;24.53;;;10.03;;
70715;SDS011;59053;50.832;12.882;2023-05-20T06:54:06;28.83;;;12.32;;
70715;SDS011;59053;50.832;12.882;2023-05-20T06:56:31;28.37;;;13.00;;
70715;SDS011;59053;50.832;12.882;2023-05-20T06:58:57;27.00;;;12.00;;
70715;SDS011;59053;50.832;12.882;2023-05-20T07:01:23;24.38;;;10.85;;
70715;SDS011;59053;50.832;12.882;2023-05-20T07:03:48;24.23;;;10.73;;
70715;SDS011;59053;50.832;12.882;2023-05-20T07:06:14;28.10;;;11.73;;
70715;SDS011;59053;50.832;12.882;2023-05-20T07:08:39;28.67;;;12.50;;
70715;SDS011;59053;50.832;12.882;2023-05-20T07:11:05;25.40;;;12.07;;
70715;SDS011;59053;50.832;12.882;2023-05-20T07:13:31;27.20;;;12.10;;
70715;SDS011;59053;50.832;12.882;2023-05-20T07:15:57;23.53;;;9.97;;
70715;SDS011;59053;50.832;12.882;2023-05-20T07:18:22;21.92;;;10.07;;
70715;SDS011;59053;50.832;12.882;2023-05-20T07:20:52;29.17;;;9.68;;
70715;SDS011;59053;50.832;12.882;2023-05-20T07:23:36;25.47;;;11.80;;
70715;SDS011;59053;50.832;12.882;2023-05-20T07:26:02;27.45;;;12.20;;
70715;SDS011;59053;50.832;12.882;2023-05-20T07:28:27;20.77;;;9.33;;
70715;SDS011;59053;50.832;12.882;2023-05-20T07:30:53;23.63;;;10.77;;
70715;SDS011;59053;50.832;12.882;2023-05-20T07:33:22;25.02;;;11.40;;
70715;SDS011;59053;50.832;12.882;2023-05-20T07:35:47;28.03;;;11.10;;
70715;SDS011;59053;50.832;12.882;2023-05-20T07:38:13;19.23;;;9.15;;
70715;SDS011;59053;50.832;12.882;2023-05-20T07:40:39;23.87;;;11.33;;
70715;SDS011;59053;50.832;12.882;2023-05-20T07:43:06;23.27;;;11.15;;
70715;SDS011;59053;50.832;12.882;2023-05-20T07:45:33;21.98;;;10.30;;
70715;SDS011;59053;50.832;12.882;2023-05-20T07:47:59;24.98;;;11.75;;
70715;SDS011;59053;50.832;12.882;2023-05-20T07:50:25;24.37;;;11.80;;
70715;SDS011;59053;50.832;12.882;2023-05-20T07:52:51;24.50;;;11.52;;
70715;SDS011;59053;50.832;12.882;2023-05-20T07:55:16;24.43;;;11.63;;
70715;SDS011;59053;50.832;12.882;2023-05-20T07:57:42;18.48;;;9.10;;
70715;SDS011;59053;50.832;12.882;2023-05-20T08:00:08;24.00;;;11.10;;
70715;SDS011;59053;50.832;12.882;2023-05-20T08:02:42;27.42;;;11.50;;
70715;SDS011;59053;50.832;12.882;2023-05-20T08:05:08;23.88;;;11.45;;
70715;SDS011;59053;50.832;12.882;2023-05-20T08:07:33;20.93;;;11.13;;
70715;SDS011;59053;50.832;12.882;2023-05-20T08:09:59;21.53;;;11.00;;
70715;SDS011;59053;50.832;12.882;2023-05-20T08:12:26;20.48;;;10.93;;
70715;SDS011;59053;50.832;12.882;2023-05-20T08:14:52;24.17;;;12.57;;
70715;SDS011;59053;50.832;12.882;2023-05-20T08:17:18;23.48;;;11.20;;
70715;SDS011;59053;50.832;12.882;2023-05-20T08:19:43;23.83;;;11.57;;
70715;SDS011;59053;50.832;12.882;2023-05-20T08:22:12;19.98;;;11.00;;
70715;SDS011;59053;50.832;12.882;2023-05-20T08:24:37;22.13;;;12.00;;
70715;SDS011;59053;50.832;12.882;2023-05-20T08:27:03;18.47;;;9.70;;
70715;SDS011;59053;50.832;12.882;2023-05-20T08:29:30;20.40;;;10.70;;
70715;SDS011;59053;50.832;12.882;2023-05-20T08:31:56;21.85;;;10.80;;
70715;SDS011;59053;50.832;12.882;2023-05-20T08:34:24;23.23;;;9.93;;
70715;SDS011;59053;50.832;12.882;2023-05-20T08:36:50;23.23;;;11.33;;
70715;SDS011;59053;50.832;12.882;2023-05-20T08:39:15;21.60;;;10.27;;
70715;SDS011;59053;50.832;12.882;2023-05-20T08:41:40;17.98;;;9.38;;
70715;SDS011;59053;50.832;12.882;2023-05-20T08:44:06;22.33;;;11.00;;
70715;SDS011;59053;50.832;12.882;2023-05-20T08:46:34;22.70;;;11.52;;
70715;SDS011;59053;50.832;12.882;2023-05-20T08:49:00;26.38;;;11.77;;
70715;SDS011;59053;50.832;12.882;2023-05-20T08:51:26;23.77;;;11.63;;
70715;SDS011;59053;50.832;12.882;2023-05-20T08:53:52;21.02;;;10.77;;
70715;SDS011;59053;50.832;12.882;2023-05-20T08:56:18;21.63;;;11.50;;
70715;SDS011;59053;50.832;12.882;2023-05-20T08:58:46;23.05;;;11.32;;
70715;SDS011;59053;50.832;12.882;2023-05-20T09:01:11;20.50;;;11.10;;
70715;SDS011;59053;50.832;12.882;2023-05-20T09:03:37;22.90;;;11.30;;
70715;SDS011;59053;50.832;12.882;2023-05-20T09:06:03;23.87;;;11.80;;
70715;SDS011;59053;50.832;12.882;2023-05-20T09:08:30;24.50;;;12.05;;
70715;SDS011;59053;50.832;12.882;2023-05-20T09:10:55;20.13;;;11.37;;
70715;SDS011;59053;50.832;12.882;2023-05-20T09:13:22;23.02;;;11.95;;
70715;SDS011;59053;50.832;12.882;2023-05-20T09:15:48;23.23;;;12.27;;
70715;SDS011;59053;50.832;12.882;2023-05-20T09:18:13;22.55;;;12.15;;
70715;SDS011;59053;50.832;12.882;2023-05-20T09:20:38;21.30;;;11.07;;
70715;SDS011;59053;50.832;12.882;2023-05-20T09:23:06;21.73;;;12.13;;
70715;SDS011;59053;50.832;12.882;2023-05-20T09:25:32;21.42;;;11.27;;
70715;SDS011;59053;50.832;12.882;2023-05-20T09:27:59;21.43;;;11.20;;
70715;SDS011;59053;50.832;12.882;2023-05-20T09:30:26;23.10;;;12.45;;
70715;SDS011;59053;50.832;12.882;2023-05-20T09:32:55;22.67;;;12.60;;
70715;SDS011;59053;50.832;12.882;2023-05-20T09:35:22;25.77;;;13.05;;
70715;SDS011;59053;50.832;12.882;2023-05-20T09:37:48;22.30;;;12.38;;
70715;SDS011;59053;50.832;12.882;2023-05-20T09:40:16;22.53;;;11.80;;
70715;SDS011;59053;50.832;12.882;2023-05-20T09:43:01;21.30;;;12.55;;
70715;SDS011;59053;50.832;12.882;2023-05-20T09:45:27;21.83;;;13.15;;
70715;SDS011;59053;50.832;12.882;2023-05-20T09:47:53;21.02;;;12.20;;
70715;SDS011;59053;50.832;12.882;2023-05-20T09:50:20;21.73;;;12.47;;
70715;SDS011;59053;50.832;12.882;2023-05-20T09:52:47;24.95;;;12.18;;
70715;SDS011;59053;50.832;12.882;2023-05-20T09:55:15;23.83;;;12.43;;
70715;SDS011;59053;50.832;12.882;2023-05-20T09:57:41;25.23;;;12.20;;
70715;SDS011;59053;50.832;12.882;2023-05-20T10:00:07;22.97;;;12.23;;
70715;SDS011;59053;50.832;12.882;2023-05-20T10:02:44;22.95;;;11.98;;
70715;SDS011;59053;50.832;12.882;2023-05-20T10:05:16;22.33;;;12.60;;
70715;SDS011;59053;50.832;12.882;2023-05-20T10:10:49;24.20;;;13.10;;
70715;SDS011;59053;50.832;12.882;2023-05-20T10:21:38;21.73;;;11.57;;
70715;SDS011;59053;50.832;12.882;2023-05-20T10:24:07;20.90;;;12.17;;
70715;SDS011;59053;50.832;12.882;2023-05-20T10:26:36;22.95;;;12.32;;
70715;SDS011;59053;50.832;12.882;2023-05-20T10:29:23;23.23;;;10.87;;
70715;SDS011;59053;50.832;12.882;2023-05-20T10:31:49;23.20;;;12.15;;
70715;SDS011;59053;50.832;12.882;2023-05-20T10:34:16;24.80;;;12.18;;
70715;SDS011;59053;50.832;12.882;2023-05-20T10:39:18;22.13;;;12.35;;
70715;SDS011;59053;50.832;12.882;2023-05-20T10:41:44;20.20;;;10.30;;
70715;SDS011;59053;50.832;12.882;2023-05-20T10:44:09;24.38;;;13.45;;
70715;SDS011;59053;50.832;12.882;2023-05-20T10:46:35;21.87;;;12.90;;
70715;SDS011;59053;50.832;12.882;2023-05-20T10:49:00;19.33;;;10.07;;
70715;SDS011;59053;50.832;12.882;2023-05-20T10:51:30;23.98;;;12.55;;
70715;SDS011;59053;50.832;12.882;2023-05-20T10:53:56;21.92;;;12.18;;
70715;SDS011;59053;50.832;12.882;2023-05-20T10:56:23;22.93;;;13.40;;
70715;SDS011;59053;50.832;12.882;2023-05-20T10:58:50;23.60;;;12.32;;
70715;SDS011;59053;50.832;12.882;2023-05-20T11:01:17;22.65;;;12.95;;
70715;SDS011;59053;50.832;12.882;2023-05-20T11:03:45;21.80;;;11.60;;
70715;SDS011;59053;50.832;12.882;2023-05-20T11:06:12;21.85;;;11.90;;
70715;SDS011;59053;50.832;12.882;2023-05-20T11:08:38;21.25;;;12.15;;
70715;SDS011;59053;50.832;12.882;2023-05-20T11:11:04;21.83;;;11.47;;
70715;SDS011;59053;50.832;12.882;2023-05-20T11:13:29;21.70;;;9.00;;
70715;SDS011;59053;50.832;12.882;2023-05-20T11:15:55;22.03;;;11.73;;
70715;SDS011;59053;50.832;12.882;2023-05-20T11:18:21;19.52;;;11.65;;
70715;SDS011;59053;50.832;12.882;2023-05-20T11:20:46;23.27;;;11.10;;
70715;SDS011;59053;50.832;12.882;2023-05-20T11:23:13;19.90;;;10.00;;
70715;SDS011;59053;50.832;12.882;2023-05-20T11:25:38;20.08;;;11.73;;
70715;SDS011;59053;50.832;12.882;2023-05-20T11:28:06;23.73;;;11.63;;
70715;SDS011;59053;50.832;12.882;2023-05-20T11:30:33;18.38;;;9.98;;
70715;SDS011;59053;50.832;12.882;2023-05-20T11:32:59;19.13;;;10.53;;
70715;SDS011;59053;50.832;12.882;2023-05-20T11:35:26;21.42;;;11.52;;
70715;SDS011;59053;50.832;12.882;2023-05-20T11:38:00;19.65;;;10.13;;
70715;SDS011;59053;50.832;12.882;2023-05-20T11:40:26;20.77;;;11.05;;
70715;SDS011;59053;50.832;12.882;2023-05-20T11:42:52;19.63;;;10.20;;
70715;SDS011;59053;50.832;12.882;2023-05-20T11:45:19;23.27;;;10.95;;
70715;SDS011;59053;50.832;12.882;2023-05-20T11:47:44;21.97;;;10.17;;
70715;SDS011;59053;50.832;12.882;2023-05-20T11:50:10;18.20;;;8.30;;
70715;SDS011;59053;50.832;12.882;2023-05-20T11:52:42;18.70;;;9.05;;
70715;SDS011;59053;50.832;12.882;2023-05-20T11:55:11;14.43;;;8.67;;
70715;SDS011;59053;50.832;12.882;2023-05-20T11:57:39;18.25;;;10.15;;
70715;SDS011;59053;50.832;12.882;2023-05-20T12:00:05;13.77;;;8.88;;
70715;SDS011;59053;50.832;12.882;2023-05-20T12:02:31;22.48;;;10.40;;
70715;SDS011;59053;50.832;12.882;2023-05-20T12:04:57;16.73;;;9.77;;
70715;SDS011;59053;50.832;12.882;2023-05-20T12:07:23;19.00;;;10.52;;
70715;SDS011;59053;50.832;12.882;2023-05-20T12:09:49;17.60;;;9.13;;
70715;SDS011;59053;50.832;12.882;2023-05-20T12:12:14;16.42;;;10.05;;
70715;SDS011;59053;50.832;12.882;2023-05-20T12:14:40;19.83;;;10.23;;
70715;SDS011;59053;50.832;12.882;2023-05-20T12:17:05;16.33;;;8.93;;
70715;SDS011;59053;50.832;12.882;2023-05-20T12:19:31;19.27;;;10.20;;
70715;SDS011;59053;50.832;12.882;2023-05-20T12:21:56;18.17;;;10.50;;
70715;SDS011;59053;50.832;12.882;2023-05-20T12:24:21;16.57;;;9.07;;
70715;SDS011;59053;50.832;12.882;2023-05-20T12:26:47;16.43;;;10.47;;
70715;SDS011;59053;50.832;12.882;2023-05-20T12:29:12;17.30;;;9.80;;
70715;SDS011;59053;50.832;12.882;2023-05-20T12:31:37;19.33;;;9.53;;
70715;SDS011;59053;50.832;12.882;2023-05-20T12:34:03;18.53;;;10.03;;
70715;SDS011;59053;50.832;12.882;2023-05-20T12:36:28;14.90;;;9.57;;
70715;SDS011;59053;50.832;12.882;2023-05-20T12:38:53;16.73;;;10.23;;
70715;SDS011;59053;50.832;12.882;2023-05-20T12:41:19;15.80;;;10.50;;
70715;SDS011;59053;50.832;12.882;2023-05-20T12:43:45;14.88;;;8.02;;
70715;SDS011;59053;50.832;12.882;2023-05-20T12:46:10;19.13;;;10.07;;
70715;SDS011;59053;50.832;12.882;2023-05-20T12:48:35;15.43;;;7.63;;
70715;SDS011;59053;50.832;12.882;2023-05-20T12:51:01;16.75;;;9.55;;
70715;SDS011;59053;50.832;12.882;2023-05-20T12:53:26;14.43;;;7.50;;
70715;SDS011;59053;50.832;12.882;2023-05-20T12:55:51;17.50;;;9.87;;
70715;SDS011;59053;50.832;12.882;2023-05-20T12:58:17;20.23;;;10.47;;
70715;SDS011;59053;50.832;12.882;2023-05-20T13:00:42;20.10;;;10.60;;
70715;SDS011;59053;50.832;12.882;2023-05-20T13:03:08;18.77;;;10.20;;
70715;SDS011;59053;50.832;12.882;2023-05-20T13:05:33;19.42;;;10.40;;
70715;SDS011;59053;50.832;12.882;2023-05-20T13:07:58;17.60;;;10.27;;
70715;SDS011;59053;50.832;12.882;2023-05-20T13:10:24;17.87;;;10.10;;
70715;SDS011;59053;50.832;12.882;2023-05-20T13:12:49;18.17;;;10.17;;
70715;SDS011;59053;50.832;12.882;2023-05-20T13:15:14;18.37;;;10.07;;
70715;SDS011;59053;50.832;12.882;2023-05-20T13:17:40;14.48;;;6.88;;
70715;SDS011;59053;50.832;12.882;2023-05-20T13:20:06;16.33;;;9.45;;
70715;SDS011;59053;50.832;12.882;2023-05-20T13:22:32;14.73;;;7.70;;
70715;SDS011;59053;50.832;12.882;2023-05-20T13:24:57;17.80;;;10.40;;
70715;SDS011;59053;50.832;12.882;2023-05-20T13:27:23;17.13;;;10.40;;
70715;SDS011;59053;50.832;12.882;2023-05-20T13:29:48;18.13;;;9.67;;
70715;SDS011;59053;50.832;12.882;2023-05-20T13:32:13;21.70;;;10.03;;
70715;SDS011;59053;50.832;12.882;2023-05-20T13:34:39;14.40;;;9.23;;
70715;SDS011;59053;50.832;12.882;2023-05-20T13:37:04;13.50;;;7.80;;
70715;SDS011;59053;50.832;12.882;2023-05-20T13:39:30;15.93;;;10.15;;
70715;SDS011;59053;50.832;12.882;2023-05-20T13:41:56;14.27;;;9.37;;
70715;SDS011;59053;50.832;12.882;2023-05-20T13:44:22;18.73;;;10.88;;
70715;SDS011;59053;50.832;12.882;2023-05-20T13:46:47;17.50;;;9.37;;
70715;SDS011;59053;50.832;12.882;2023-05-20T13:49:12;14.88;;;7.80;;
70715;SDS011;59053;50.832;12.882;2023-05-20T13:51:38;13.83;;;7.50;;
70715;SDS011;59053;50.832;12.882;2023-05-20T13:54:03;14.90;;;8.60;;
70715;SDS011;59053;50.832;12.882;2023-05-20T13:56:28;16.53;;;8.60;;
70715;SDS011;59053;50.832;12.882;2023-05-20T13:58:54;16.20;;;10.10;;
70715;SDS011;59053;50.832;12.882;2023-05-20T14:01:19;15.52;;;7.15;;
70715;SDS011;59053;50.832;12.882;2023-05-20T14:03:44;14.90;;;9.27;;
70715;SDS011;59053;50.832;12.882;2023-05-20T14:06:10;16.03;;;9.80;;
70715;SDS011;59053;50.832;12.882;2023-05-20T14:08:36;16.88;;;9.98;;
70715;SDS011;59053;50.832;12.882;2023-05-20T14:11:01;15.63;;;9.27;;
70715;SDS011;59053;50.832;12.882;2023-05-20T14:13:26;16.33;;;9.60;;
70715;SDS011;59053;50.832;12.882;2023-05-20T14:15:55;15.80;;;9.30;;
70715;SDS011;59053;50.832;12.882;2023-05-20T14:18:20;18.27;;;10.00;;
70715;SDS011;59053;50.832;12.882;2023-05-20T14:20:46;16.47;;;8.93;;
70715;SDS011;59053;50.832;12.882;2023-05-20T14:23:11;16.27;;;9.15;;